Time;durP1;ratioP1;P1;durP2;ratioP2;P2;SDS_P1;SDS_P2;PMS_P1;PMS_P2;Temp;Humidity;BMP_temperature;BMP_pressure;BME280_temperature;BME280_humidity;BME280_pressure;Samples;Min_cycle;Max_cycle;Signal;HPM_P1;HPM_P2
2022/08/24 00:00:22;;;;;;;11.48;5.87;;;;;;;23.92;66.45;98097.06;4425469;32;20138;-85
2022/08/24 00:02:49;;;;;;;11.07;5.85;;;;;;;23.97;66.37;98099.25;4425447;32;20106;-85
2022/08/24 00:05:20;;;;;;;11.30;6.03;;;;;;;23.93;66.43;98093.47;4425751;32;20093;-85
2022/08/24 00:07:48;;;;;;;12.15;6.53;;;;;;;23.95;66.90;98094.16;4425881;32;20787;-85
2022/08/24 00:10:16;;;;;;;11.90;6.45;;;;;;;24.05;66.19;98098.53;4425463;32;20082;-85
2022/08/24 00:12:43;;;;;;;12.27;6.75;;;;;;;23.54;68.35;98095.44;4425863;32;20101;-85
2022/08/24 00:15:12;;;;;;;12.85;6.87;;;;;;;23.51;68.75;98092.28;4425795;32;20094;-85
2022/08/24 00:17:39;;;;;;;11.60;6.57;;;;;;;23.46;69.14;98076.06;4424396;32;20100;-85
2022/08/24 00:20:08;;;;;;;13.02;6.95;;;;;;;23.48;69.44;98087.28;4425805;32;20090;-85
2022/08/24 00:22:36;;;;;;;20.60;7.18;;;;;;;23.71;67.80;98088.59;4425602;32;20130;-85
2022/08/24 00:25:03;;;;;;;14.18;6.95;;;;;;;23.73;68.51;98086.66;4424189;32;20174;-85
2022/08/24 00:27:30;;;;;;;14.30;7.43;;;;;;;23.86;67.29;98087.13;4425656;32;20143;-85
2022/08/24 00:29:57;;;;;;;13.57;7.35;;;;;;;23.93;67.37;98080.28;4425658;32;20130;-85
2022/08/24 00:32:24;;;;;;;14.65;8.07;;;;;;;24.01;67.00;98083.97;4425370;32;20194;-85
2022/08/24 00:34:51;;;;;;;15.13;7.75;;;;;;;23.48;69.37;98077.59;4425476;32;20236;-85
2022/08/24 00:37:27;;;;;;;14.00;8.10;;;;;;;23.76;68.62;98085.53;4425632;32;20108;-85
2022/08/24 00:39:55;;;;;;;14.10;7.80;;;;;;;23.86;67.87;98087.13;4425349;32;20070;-85
2022/08/24 00:42:23;;;;;;;13.48;8.02;;;;;;;23.50;69.66;98090.59;4425557;32;20097;-85
2022/08/24 00:44:50;;;;;;;14.43;7.80;;;;;;;23.53;69.25;98087.69;4425256;32;20365;-85
2022/08/24 00:47:23;;;;;;;14.45;8.00;;;;;;;23.97;67.56;98088.72;4425584;32;20126;-85
2022/08/24 00:49:53;;;;;;;14.40;8.38;;;;;;;24.37;66.50;98090.97;4425743;32;20078;-85
2022/08/24 00:52:33;;;;;;;13.93;8.15;;;;;;;24.17;67.39;98087.63;4425315;32;20153;-85
2022/08/24 00:55:17;;;;;;;13.15;7.40;;;;;;;24.71;64.79;98088.44;4424380;32;20097;-85
2022/08/24 00:57:52;;;;;;;14.57;7.70;;;;;;;24.12;67.28;98092.50;4425513;32;20444;-85
2022/08/24 01:00:22;;;;;;;12.65;7.57;;;;;;;24.51;65.95;98095.69;4423835;32;20145;-85
2022/08/24 01:02:52;;;;;;;13.80;7.32;;;;;;;24.52;65.19;98100.00;4425368;32;20106;-85
2022/08/24 01:05:20;;;;;;;14.38;7.80;;;;;;;24.06;67.36;98087.00;4424674;32;20143;-85
2022/08/24 01:07:48;;;;;;;13.00;7.65;;;;;;;24.37;66.72;98087.50;4425161;32;20107;-85
2022/08/24 01:10:26;;;;;;;15.18;8.02;;;;;;;23.54;69.58;98081.44;4424284;32;20145;-85
2022/08/24 01:12:56;;;;;;;15.82;8.23;;;;;;;24.26;67.11;98075.34;4425114;32;20094;-85
2022/08/24 01:15:29;;;;;;;15.55;7.50;;;;;;;24.45;66.64;98080.47;4424267;32;20106;-85
2022/08/24 01:20:45;;;;;;;17.62;8.98;;;;;;;23.91;68.29;98076.97;4425127;32;20482;-85
2022/08/24 01:23:30;;;;;;;14.85;8.68;;;;;;;24.15;67.65;98073.75;4425252;32;20157;-85
2022/08/24 01:26:03;;;;;;;13.93;8.18;;;;;;;24.13;68.35;98069.59;4425415;32;20093;-85
2022/08/24 01:28:31;;;;;;;14.50;8.10;;;;;;;23.40;71.07;98068.78;4424959;32;20172;-85
2022/08/24 01:30:58;;;;;;;13.82;8.05;;;;;;;24.31;67.24;98070.47;4424174;32;20082;-85
2022/08/24 01:33:28;;;;;;;14.90;8.63;;;;;;;24.15;68.81;98076.41;4425267;32;20404;-85
2022/08/24 01:36:06;;;;;;;17.05;7.90;;;;;;;22.92;73.25;98064.50;4424977;32;20109;-85
2022/08/24 01:38:33;;;;;;;16.10;8.98;;;;;;;22.83;74.94;98074.03;4425172;32;20085;-86
2022/08/24 01:41:04;;;;;;;15.38;8.85;;;;;;;22.89;74.63;98065.63;4424962;32;20107;-85
2022/08/24 01:43:31;;;;;;;14.20;8.05;;;;;;;23.52;72.01;98064.97;4425040;32;20145;-84
2022/08/24 01:46:03;;;;;;;15.27;8.85;;;;;;;22.60;75.69;98070.06;4425307;32;20097;-85
2022/08/24 01:48:30;;;;;;;14.87;8.23;;;;;;;23.57;72.01;98066.19;4424772;32;20177;-85
2022/08/24 01:50:57;;;;;;;15.48;8.48;;;;;;;22.41;76.83;98070.91;4423943;32;20152;-85
2022/08/24 01:53:24;;;;;;;15.05;8.70;;;;;;;23.78;71.07;98071.22;4425149;32;20149;-86
2022/08/24 01:55:51;;;;;;;15.20;7.43;;;;;;;24.23;68.71;98078.25;4424753;32;20149;-85
2022/08/24 01:58:18;;;;;;;15.10;8.00;;;;;;;24.38;68.02;98071.53;4424974;32;20500;-86
2022/08/24 02:00:45;;;;;;;17.70;8.18;;;;;;;24.15;69.11;98076.41;4424876;32;20070;-85
2022/08/24 02:03:13;;;;;;;14.50;8.32;;;;;;;23.38;71.90;98076.78;4424574;32;20126;-85
2022/08/24 02:05:40;;;;;;;14.27;7.80;;;;;;;23.95;69.70;98074.88;4424769;32;20409;-85
2022/08/24 02:08:07;;;;;;;14.55;7.72;;;;;;;23.20;73.03;98074.13;4424906;32;20398;-85
2022/08/24 02:10:34;;;;;;;14.95;9.10;;;;;;;22.62;75.08;98076.84;4424647;32;20121;-85
2022/08/24 02:13:01;;;;;;;15.13;8.23;;;;;;;22.95;74.75;98072.09;4424905;32;20142;-85
2022/08/24 02:15:33;;;;;;;14.57;8.32;;;;;;;23.28;73.26;98078.63;4424392;32;20107;-85
2022/08/24 02:18:00;;;;;;;17.60;8.63;;;;;;;23.61;71.84;98072.03;4424537;32;20078;-85
2022/08/24 02:20:27;;;;;;;15.52;8.40;;;;;;;22.91;74.04;98070.75;4424777;32;20462;-85
2022/08/24 02:22:54;;;;;;;15.50;8.10;;;;;;;23.60;71.71;98076.44;4424291;32;20403;-85
2022/08/24 02:25:21;;;;;;;15.18;8.13;;;;;;;23.96;70.11;98079.16;4424569;32;20152;-85
2022/08/24 02:27:48;;;;;;;14.63;8.43;;;;;;;23.17;72.89;98077.00;4424632;32;20090;-85
2022/08/24 02:30:16;;;;;;;14.27;8.20;;;;;;;23.11;73.99;98080.25;4424336;32;20512;-85
2022/08/24 02:32:43;;;;;;;14.98;8.73;;;;;;;23.63;71.47;98080.59;4424666;32;20098;-85
2022/08/24 02:35:10;;;;;;;14.60;8.18;;;;;;;23.31;72.89;98087.09;4424485;32;20146;-85
2022/08/24 02:37:37;;;;;;;15.77;9.20;;;;;;;23.97;69.85;98086.09;4424264;32;20115;-85
2022/08/24 02:40:11;;;;;;;17.35;9.00;;;;;;;23.99;69.60;98093.84;4424531;32;20115;-85
2022/08/24 02:42:38;;;;;;;14.55;8.25;;;;;;;24.34;68.10;98098.31;4424392;32;20155;-85
2022/08/24 02:45:06;;;;;;;15.45;8.43;;;;;;;24.36;68.05;98091.94;4423924;32;20102;-85
2022/08/24 02:47:34;;;;;;;15.80;8.32;;;;;;;23.52;71.05;98088.69;4424487;32;20120;-85
2022/08/24 02:50:07;;;;;;;14.98;8.60;;;;;;;23.81;70.50;98091.16;4424390;32;20432;-85
2022/08/24 02:52:36;;;;;;;13.93;7.78;;;;;;;23.72;70.76;98086.81;4423958;32;20141;-85
2022/08/24 02:55:04;;;;;;;13.50;8.32;;;;;;;23.77;70.46;98087.19;4424142;32;20155;-85
2022/08/24 02:57:31;;;;;;;15.30;8.25;;;;;;;23.46;71.79;98086.59;4423195;32;20097;-85
2022/08/24 02:59:58;;;;;;;16.30;9.15;;;;;;;23.33;72.43;98092.22;4423511;32;20229;-85
2022/08/24 03:02:26;;;;;;;16.52;8.75;;;;;;;23.60;72.08;98086.16;4424087;32;20094;-85
2022/08/24 03:04:53;;;;;;;16.17;8.20;;;;;;;23.51;71.92;98087.84;4424020;32;20531;-85
2022/08/24 03:07:20;;;;;;;16.08;8.90;;;;;;;23.27;72.37;98082.25;4424308;32;20117;-85
2022/08/24 03:09:47;;;;;;;15.55;8.80;;;;;;;24.09;69.43;98091.97;4424011;32;20462;-85
2022/08/24 03:12:14;;;;;;;18.42;8.48;;;;;;;23.85;70.36;98084.66;4423760;32;20431;-85
2022/08/24 03:14:41;;;;;;;14.63;8.43;;;;;;;23.83;70.52;98089.25;4423850;32;20111;-85
2022/08/24 03:17:08;;;;;;;17.08;8.88;;;;;;;23.43;71.84;98081.66;4423982;32;20094;-85
2022/08/24 03:19:35;;;;;;;15.15;7.97;;;;;;;23.94;70.23;98089.03;4423556;32;20531;-85
2022/08/24 03:22:03;;;;;;;18.08;8.90;;;;;;;24.33;68.55;98081.69;4422741;32;20098;-85
2022/08/24 03:24:30;;;;;;;14.05;8.10;;;;;;;24.15;68.96;98083.47;4423662;32;20098;-85
2022/08/24 03:26:57;;;;;;;15.02;8.38;;;;;;;24.56;67.49;98091.75;4424041;32;20440;-85
2022/08/24 03:29:25;;;;;;;17.25;8.07;;;;;;;23.95;69.17;98083.59;4426183;32;20086;-85
2022/08/24 03:31:52;;;;;;;15.35;8.70;;;;;;;24.26;68.57;98082.44;4426162;32;20102;-85
2022/08/24 03:34:19;;;;;;;16.12;9.13;;;;;;;23.73;71.06;98084.03;4425593;32;20113;-85
2022/08/24 03:36:46;;;;;;;16.27;8.68;;;;;;;24.08;69.55;98077.12;4426368;32;20173;-85
2022/08/24 03:39:15;;;;;;;15.80;8.40;;;;;;;23.60;71.91;98081.72;4426039;32;20145;-85
2022/08/24 03:41:41;;;;;;;15.82;9.18;;;;;;;24.32;68.21;98080.03;4425591;32;20112;-85
2022/08/24 03:44:08;;;;;;;14.50;8.73;;;;;;;23.96;69.89;98073.91;4425795;32;20089;-85
2022/08/24 03:46:37;;;;;;;13.95;8.15;;;;;;;24.98;65.90;98084.00;4426088;32;20634;-85
2022/08/24 03:49:07;;;;;;;15.38;9.05;;;;;;;25.36;63.98;98077.47;4425659;32;20090;-85
2022/08/24 03:51:36;;;;;;;16.58;9.20;;;;;;;24.99;65.48;98073.31;4426017;32;20090;-85
2022/08/24 03:54:06;;;;;;;15.52;8.82;;;;;;;24.69;66.79;98073.75;4425638;32;20157;-84
2022/08/24 03:56:34;;;;;;;15.68;8.57;;;;;;;24.87;66.42;98077.16;4425911;32;20177;-85
2022/08/24 03:59:01;;;;;;;15.45;8.88;;;;;;;24.79;66.59;98071.84;4424416;32;20104;-85
2022/08/24 04:01:28;;;;;;;16.75;9.32;;;;;;;24.65;66.62;98067.09;4425550;32;20395;-85
2022/08/24 04:03:55;;;;;;;15.88;9.15;;;;;;;24.11;69.32;98063.66;4425722;32;20120;-85
2022/08/24 04:06:23;;;;;;;15.88;9.55;;;;;;;23.58;70.92;98067.88;4426003;32;20440;-85
2022/08/24 04:08:51;;;;;;;15.00;8.57;;;;;;;24.50;67.53;98080.03;4425419;32;20149;-85
2022/08/24 04:11:21;;;;;;;16.02;9.25;;;;;;;24.70;66.98;98080.69;4425904;32;20138;-85
2022/08/24 04:13:51;;;;;;;14.60;9.18;;;;;;;25.28;64.28;98078.25;4425908;32;20097;-85
2022/08/24 04:16:19;;;;;;;18.20;9.73;;;;;;;25.23;64.48;98077.09;4425531;32;20140;-85
2022/08/24 04:18:47;;;;;;;15.85;9.38;;;;;;;24.84;65.98;98074.84;4425728;32;20143;-85
2022/08/24 04:21:20;;;;;;;17.00;10.20;;;;;;;24.59;67.09;98067.75;4425776;32;20101;-85
2022/08/24 04:23:47;;;;;;;16.83;10.27;;;;;;;24.41;67.78;98062.47;4425376;32;20457;-85
2022/08/24 04:26:16;;;;;;;16.92;9.90;;;;;;;24.33;68.17;98060.59;4425800;32;20338;-85
2022/08/24 04:29:04;;;;;;;20.33;10.70;;;;;;;24.04;69.29;98065.25;4425587;32;20135;-85
2022/08/24 04:31:35;;;;;;;17.20;10.23;;;;;;;24.70;67.17;98059.56;4425720;32;20161;-85
2022/08/24 04:34:03;;;;;;;19.55;11.20;;;;;;;24.42;68.02;98064.97;4425619;32;20112;-85
2022/08/24 04:36:31;;;;;;;17.98;10.65;;;;;;;24.43;67.94;98071.88;4425389;32;20470;-85
2022/08/24 04:38:59;;;;;;;17.58;9.73;;;;;;;24.24;68.09;98074.63;4425525;32;20086;-85
2022/08/24 04:41:26;;;;;;;18.00;10.27;;;;;;;24.66;67.75;98082.78;4425718;32;20100;-85
2022/08/24 04:43:58;;;;;;;18.77;10.82;;;;;;;24.85;66.93;98088.84;4425182;32;20126;-85
2022/08/24 04:46:25;;;;;;;18.55;10.40;;;;;;;24.78;66.75;98084.22;4425547;32;20149;-85
2022/08/24 04:48:53;;;;;;;18.60;10.73;;;;;;;24.60;67.97;98083.41;4425513;32;20504;-85
2022/08/24 04:51:20;;;;;;;17.83;9.68;;;;;;;24.42;68.71;98079.94;4425232;32;20112;-86
2022/08/24 04:53:49;;;;;;;17.65;10.88;;;;;;;24.85;67.03;98083.56;4425558;32;20158;-85
2022/08/24 04:56:19;;;;;;;17.40;10.60;;;;;;;24.50;68.73;98078.22;4425538;32;20090;-86
2022/08/24 04:58:46;;;;;;;19.98;9.68;;;;;;;24.55;68.32;98085.66;4424829;32;20151;-85
2022/08/24 05:01:18;;;;;;;18.75;10.32;;;;;;;24.34;69.19;98083.34;4425638;32;20161;-85
2022/08/24 05:03:48;;;;;;;18.73;10.13;;;;;;;23.20;73.87;98079.38;4425461;32;20150;-85
2022/08/24 05:06:15;;;;;;;19.80;11.12;;;;;;;23.43;73.63;98086.91;4425228;32;20444;-85
2022/08/24 05:08:43;;;;;;;17.83;10.23;;;;;;;23.28;74.00;98079.47;4425576;32;20086;-85
2022/08/24 05:11:10;;;;;;;16.67;9.65;;;;;;;22.92;76.13;98086.38;4425518;32;20106;-85
2022/08/24 05:13:37;;;;;;;20.10;11.70;;;;;;;22.29;78.27;98088.63;4425215;32;20162;-84
2022/08/24 05:16:14;;;;;;;19.83;10.60;;;;;;;23.22;75.08;98092.41;4425468;32;20098;-85
2022/08/24 05:18:41;;;;;;;18.65;11.38;;;;;;;23.83;73.26;98087.44;4425182;32;20082;-85
2022/08/24 05:21:10;;;;;;;22.65;11.48;;;;;;;25.33;65.88;98086.56;4425634;32;20145;-85
2022/08/24 05:23:39;;;;;;;20.25;10.90;;;;;;;25.42;65.73;98091.88;4425122;32;20110;-85
2022/08/24 05:26:24;;;;;;;17.65;10.27;;;;;;;25.75;64.15;98088.41;4425845;32;20081;-85
2022/08/24 05:28:56;;;;;;;18.12;10.50;;;;;;;25.68;64.51;98082.06;4426963;32;20147;-85
2022/08/24 05:31:26;;;;;;;19.30;10.25;;;;;;;25.56;65.47;98089.47;4426125;32;20128;-85
2022/08/24 05:33:55;;;;;;;17.85;10.55;;;;;;;25.83;63.83;98087.59;4428208;32;20452;-85
2022/08/24 05:36:26;;;;;;;19.95;10.43;;;;;;;26.02;63.84;98087.31;4427907;32;20099;-85
2022/08/24 05:38:55;;;;;;;17.75;9.27;;;;;;;26.44;61.55;98089.88;4428093;32;20090;-85
2022/08/24 05:41:23;;;;;;;16.33;9.68;;;;;;;25.53;65.64;98087.16;4428174;32;20113;-85
2022/08/24 05:43:52;;;;;;;17.83;10.18;;;;;;;26.05;64.01;98086.16;4430222;32;20090;-85
2022/08/24 05:46:20;;;;;;;17.65;10.25;;;;;;;25.98;63.48;98088.63;4431509;32;20136;-84
2022/08/24 05:48:47;;;;;;;16.95;9.82;;;;;;;26.02;63.79;98084.66;4431579;32;20143;-86
2022/08/24 05:51:18;;;;;;;18.42;10.50;;;;;;;26.55;61.99;98085.25;4429969;32;20070;-86
2022/08/24 05:53:45;;;;;;;19.75;9.57;;;;;;;27.64;58.44;98085.53;4430568;32;20138;-85
2022/08/24 05:56:14;;;;;;;20.12;9.57;;;;;;;27.49;58.16;98079.31;4428423;32;20103;-86
2022/08/24 05:58:41;;;;;;;16.00;9.27;;;;;;;28.32;55.62;98087.56;4426644;32;20506;-86
2022/08/24 06:01:17;;;;;;;16.77;9.55;;;;;;;28.44;54.84;98086.13;4428953;32;20123;-85
2022/08/24 06:03:47;;;;;;;15.82;9.18;;;;;;;28.24;54.96;98082.25;4426471;32;20152;-83
2022/08/24 06:06:15;;;;;;;14.80;9.18;;;;;;;28.14;54.72;98084.31;4430463;32;20149;-83
2022/08/24 06:08:45;;;;;;;15.82;9.20;;;;;;;27.71;55.73;98078.59;4432288;32;20161;-77
2022/08/24 06:11:25;;;;;;;17.50;9.90;;;;;;;27.07;58.18;98086.56;4422799;32;20124;-77
2022/08/24 06:14:02;;;;;;;16.02;8.68;;;;;;;27.84;56.49;98083.31;4422536;32;20113;-77
2022/08/24 06:16:35;;;;;;;14.40;7.87;;;;;;;26.59;60.60;98079.50;4422762;32;20090;-79
2022/08/24 06:19:03;;;;;;;15.50;8.52;;;;;;;25.35;65.44;98076.66;4423948;32;20144;-77
2022/08/24 06:21:31;;;;;;;18.67;8.98;;;;;;;25.17;65.88;98075.91;4422689;32;20137;-77
2022/08/24 06:23:58;;;;;;;16.33;8.85;;;;;;;25.33;65.87;98060.16;4424459;32;20507;-77
2022/08/24 06:29:17;;;;;;;15.32;8.68;;;;;;;26.13;63.96;98068.50;4424259;32;20155;-78
2022/08/24 06:31:47;;;;;;;17.60;9.43;;;;;;;25.94;64.11;98058.22;4423427;32;20126;-78
2022/08/24 06:34:20;;;;;;;19.15;9.82;;;;;;;26.25;63.28;98071.66;4424527;32;20165;-78
2022/08/24 06:36:47;;;;;;;14.98;8.90;;;;;;;26.83;60.69;98076.00;4424201;32;20129;-78
2022/08/24 06:39:14;;;;;;;16.02;8.82;;;;;;;27.17;58.91;98074.97;4424417;32;20133;-78
2022/08/24 06:41:42;;;;;;;15.73;8.52;;;;;;;27.50;56.64;98079.16;4424496;32;20166;-77
2022/08/24 06:44:09;;;;;;;26.02;10.93;;;;;;;27.65;56.98;98084.59;4423917;32;20105;-77
2022/08/24 06:46:36;;;;;;;18.33;9.82;;;;;;;28.36;55.23;98083.53;4424361;32;20082;-77
2022/08/24 06:49:04;;;;;;;21.67;10.90;;;;;;;29.22;52.43;98084.94;4424255;32;20717;-77
2022/08/24 06:51:31;;;;;;;19.23;9.38;;;;;;;29.78;50.20;98092.47;4422856;32;20093;-77
2022/08/24 06:53:58;;;;;;;17.37;9.43;;;;;;;30.23;49.33;98100.16;4424297;32;20161;-81
2022/08/24 06:56:25;;;;;;;14.80;8.32;;;;;;;30.31;49.15;98098.41;4425671;32;20094;-81
2022/08/24 06:58:53;;;;;;;17.40;9.02;;;;;;;30.68;47.43;98103.47;4423434;32;20144;-81
2022/08/24 07:01:24;;;;;;;15.80;8.88;;;;;;;29.60;49.78;98100.81;4425516;32;20117;-81
2022/08/24 07:03:51;;;;;;;18.25;9.13;;;;;;;29.88;49.16;98106.25;4424667;32;20118;-78
2022/08/24 07:06:19;;;;;;;16.15;8.98;;;;;;;28.60;52.82;98102.91;4426297;32;20081;-78
2022/08/24 07:08:46;;;;;;;14.35;8.43;;;;;;;27.96;55.34;98100.50;4426042;32;20070;-78
2022/08/24 07:11:16;;;;;;;14.50;8.75;;;;;;;28.53;54.21;98108.13;4425914;32;20153;-78
2022/08/24 07:13:47;;;;;;;13.62;7.95;;;;;;;29.38;50.95;98110.50;4426206;32;20174;-78
2022/08/24 07:16:18;;;;;;;15.23;7.68;;;;;;;29.76;50.07;98118.37;4426133;32;20143;-78
2022/08/24 07:18:45;;;;;;;16.00;9.07;;;;;;;28.80;53.23;98117.34;4425858;32;20106;-78
2022/08/24 07:21:19;;;;;;;15.13;8.73;;;;;;;28.69;52.79;98118.59;4426368;32;20106;-78
2022/08/24 07:23:47;;;;;;;14.18;8.02;;;;;;;29.55;51.08;98124.47;4426186;32;20086;-79
2022/08/24 07:26:21;;;;;;;14.87;8.63;;;;;;;29.83;49.60;98129.94;4425678;32;20100;-78
2022/08/24 07:28:54;;;;;;;16.02;8.40;;;;;;;30.10;49.10;98131.97;4426095;32;20104;-78
2022/08/24 07:31:21;;;;;;;14.45;8.07;;;;;;;29.32;51.64;98132.50;4426180;32;20098;-78
2022/08/24 07:33:48;;;;;;;12.98;7.45;;;;;;;30.33;48.72;98125.66;4425769;32;20106;-78
2022/08/24 07:36:16;;;;;;;15.73;8.45;;;;;;;29.29;51.73;98123.06;4426126;32;20176;-78
2022/08/24 07:38:52;;;;;;;16.08;8.45;;;;;;;30.34;48.45;98120.13;4425601;32;20145;-78
2022/08/24 07:41:21;;;;;;;12.40;7.55;;;;;;;30.17;49.12;98118.72;4426151;32;20144;-78
2022/08/24 07:44:09;;;;;;;14.02;8.35;;;;;;;30.43;48.33;98134.97;4424707;32;20445;-79
2022/08/24 07:46:39;;;;;;;12.30;7.05;;;;;;;30.75;46.91;98127.50;4425422;32;20145;-79
2022/08/24 07:49:07;;;;;;;14.65;7.82;;;;;;;29.56;50.18;98126.09;4425905;32;20107;-78
2022/08/24 07:51:53;;;;;;;;;;;;;;;29.12;52.04;98124.22;4425991;32;20102;-78
2022/08/24 07:54:20;;;;;;;14.82;8.30;;;;;;;27.94;55.24;98124.53;4425432;32;19987;-78
2022/08/24 07:56:49;;;;;;;14.50;7.55;;;;;;;26.62;60.17;98124.13;4425908;32;20507;-78
2022/08/24 07:59:16;;;;;;;14.13;8.20;;;;;;;26.76;59.91;98135.88;4425576;32;20078;-78
2022/08/24 08:01:43;;;;;;;14.70;8.35;;;;;;;27.26;59.08;98138.34;4424420;32;20106;-78
2022/08/24 08:04:10;;;;;;;13.38;7.97;;;;;;;27.95;57.10;98130.66;4424558;32;20101;-78
2022/08/24 08:06:37;;;;;;;14.65;8.48;;;;;;;27.48;58.13;98130.66;4425824;32;20094;-78
2022/08/24 08:09:05;;;;;;;13.95;8.43;;;;;;;28.13;55.74;98133.91;4425734;32;20107;-78
2022/08/24 08:11:32;;;;;;;13.90;8.50;;;;;;;28.75;54.26;98133.84;4425865;32;20149;-77
2022/08/24 08:13:59;;;;;;;14.93;8.38;;;;;;;28.39;54.97;98146.03;4425170;32;20117;-78
2022/08/24 08:16:26;;;;;;;14.70;8.20;;;;;;;29.94;50.14;98134.78;4424574;32;20577;-77
2022/08/24 08:18:53;;;;;;;14.70;7.68;;;;;;;29.76;50.61;98137.81;4425661;32;20460;-78
2022/08/24 08:24:27;;;;;;;14.43;8.30;;;;;;;29.76;50.33;98140.50;4425679;32;20109;-78
2022/08/24 08:26:56;;;;;;;14.40;8.27;;;;;;;29.71;50.46;98134.09;4424712;32;20188;-78
2022/08/24 08:29:24;;;;;;;14.25;8.60;;;;;;;30.13;49.83;98142.22;4425306;32;20429;-78
2022/08/24 08:31:51;;;;;;;16.05;8.20;;;;;;;28.20;55.35;98142.81;4425742;32;20097;-77
2022/08/24 08:34:18;;;;;;;13.32;7.40;;;;;;;29.59;51.51;98147.84;4424443;32;20114;-77
2022/08/24 08:36:46;;;;;;;16.15;7.72;;;;;;;28.80;53.99;98149.22;4425286;32;20086;-77
2022/08/24 08:39:15;;;;;;;14.98;7.85;;;;;;;28.15;56.16;98144.31;4425645;32;20131;-77
2022/08/24 08:42:00;;;;;;;13.98;8.43;;;;;;;28.47;55.72;98146.81;4425495;32;20163;-77
2022/08/24 08:44:47;;;;;;;15.25;8.18;;;;;;;28.40;55.75;98155.66;4425382;32;20149;-79
2022/08/24 08:47:43;;;;;;;12.70;7.60;;;;;;;28.29;55.66;98162.19;4424506;32;20409;-78
2022/08/24 08:50:32;;;;;;;14.60;8.30;;;;;;;27.96;56.93;98169.44;4425214;32;20735;-78
2022/08/24 08:53:17;;;;;;;14.18;7.93;;;;;;;27.35;59.43;98169.13;4425698;32;20097;-79
2022/08/24 08:55:46;;;;;;;14.45;8.52;;;;;;;26.59;62.01;98172.09;4425257;32;20118;-76
2022/08/24 08:58:29;;;;;;;13.73;7.60;;;;;;;26.77;62.45;98167.47;4425603;32;20094;-77
2022/08/24 09:01:32;;;;;;;14.87;7.95;;;;;;;26.66;62.48;98167.78;4424274;32;20152;-76
2022/08/24 09:04:43;;;;;;;14.60;8.50;;;;;;;26.85;62.21;98173.75;4405969;32;20169;-76
2022/08/24 09:07:35;;;;;;;15.65;8.50;;;;;;;26.38;63.59;98172.56;4417517;32;20102;-76
2022/08/24 09:10:20;;;;;;;15.70;8.57;;;;;;;26.16;64.38;98184.53;4424794;32;20124;-76
2022/08/24 09:13:25;;;;;;;14.90;8.40;;;;;;;26.71;63.29;98189.31;4425572;32;20157;-76
2022/08/24 09:16:14;;;;;;;13.25;8.40;;;;;;;27.80;59.03;98183.59;4425339;32;20162;-76
2022/08/24 09:18:55;;;;;;;14.40;8.63;;;;;;;28.69;55.14;98187.63;4425087;32;20448;-76
2022/08/24 09:21:59;;;;;;;12.95;7.95;;;;;;;29.03;53.88;98197.88;4425493;32;20109;-76
2022/08/24 09:25:03;;;;;;;14.75;8.90;;;;;;;29.08;53.52;98194.66;4416941;32;20142;-76
2022/08/24 09:27:50;;;;;;;15.82;7.53;;;;;;;28.63;55.41;98192.84;4401198;32;20132;-76
2022/08/24 09:30:22;;;;;;;13.98;8.68;;;;;;;28.27;56.53;98193.34;4424297;32;20164;-76
2022/08/24 09:33:00;;;;;;;16.75;7.87;;;;;;;28.44;55.74;98194.09;4424998;32;20120;-76
2022/08/24 09:35:40;;;;;;;15.02;7.95;;;;;;;28.86;54.32;98192.84;4424066;32;20098;-76
2022/08/24 09:38:26;;;;;;;14.73;7.97;;;;;;;28.81;55.31;98193.34;4423642;32;20444;-76
2022/08/24 09:41:13;;;;;;;15.35;8.00;;;;;;;30.11;51.24;98192.13;4425277;32;20149;-76
2022/08/24 09:43:54;;;;;;;14.02;7.57;;;;;;;28.07;57.15;98186.78;4424114;32;20160;-76
2022/08/24 09:46:49;;;;;;;13.00;7.80;;;;;;;27.89;57.68;98182.59;4424972;32;20108;-76
2022/08/24 09:49:46;;;;;;;12.90;7.68;;;;;;;27.22;60.48;98182.06;4425087;32;20132;-75
2022/08/24 09:52:31;;;;;;;13.10;7.60;;;;;;;26.89;62.07;98178.56;4423613;32;20565;-76
2022/08/24 09:55:19;;;;;;;15.93;8.15;;;;;;;27.53;59.56;98168.06;4424975;32;20172;-76
2022/08/24 09:58:09;;;;;;;13.68;8.18;;;;;;;27.36;59.80;98176.06;4423835;32;20086;-76
2022/08/24 10:00:42;;;;;;;12.88;7.78;;;;;;;27.83;58.41;98171.81;4423326;32;20119;-76
2022/08/24 10:03:46;;;;;;;16.80;8.55;;;;;;;28.23;57.12;98163.69;4425133;32;20089;-76
2022/08/24 10:06:43;;;;;;;12.82;8.02;;;;;;;28.48;57.03;98163.56;4424471;32;20139;-76
2022/08/24 10:09:19;;;;;;;15.93;7.47;;;;;;;29.17;54.38;98161.72;4424989;32;20128;-76
2022/08/24 10:12:12;;;;;;;14.52;6.68;;;;;;;30.47;50.52;98157.53;4425071;32;20140;-76
2022/08/24 10:14:53;;;;;;;14.65;8.35;;;;;;;28.55;54.87;98155.72;4424480;32;20117;-76
2022/08/24 10:17:52;;;;;;;15.70;7.57;;;;;;;28.07;57.79;98165.56;4425025;32;20104;-76
2022/08/24 10:20:39;;;;;;;15.23;8.07;;;;;;;28.08;57.56;98154.00;4424495;32;20085;-76
2022/08/24 10:23:24;;;;;;;15.15;8.15;;;;;;;28.37;57.13;98145.38;4423749;32;20173;-76
2022/08/24 10:26:10;;;;;;;13.62;7.45;;;;;;;29.17;54.47;98148.44;4424596;32;20147;-76
2022/08/24 10:28:56;;;;;;;13.07;6.70;;;;;;;27.04;61.00;98142.50;4423131;32;20109;-76
2022/08/24 10:31:41;;;;;;;14.32;7.50;;;;;;;25.85;65.98;98136.69;4424611;32;20151;-76
2022/08/24 10:34:30;;;;;;;14.50;7.55;;;;;;;25.98;66.53;98140.69;4423979;32;20089;-76
2022/08/24 10:37:08;;;;;;;16.48;8.55;;;;;;;25.82;66.52;98142.25;4425627;32;20158;-76
2022/08/24 10:40:07;;;;;;;13.98;6.80;;;;;;;25.93;67.47;98139.34;4425252;32;20103;-77
2022/08/24 10:45:32;;;;;;;16.80;6.68;;;;;;;25.59;67.39;98143.78;4426251;32;20116;-76
2022/08/24 10:48:17;;;;;;;15.60;7.78;;;;;;;24.65;70.97;98136.53;4426439;32;20702;-76
2022/08/24 10:51:07;;;;;;;21.35;7.10;;;;;;;25.33;69.42;98133.25;4426452;32;20471;-76
2022/08/24 10:53:34;;;;;;;14.13;7.78;;;;;;;24.88;71.14;98139.50;4426337;32;20149;-77
2022/08/24 10:56:12;;;;;;;14.68;6.95;;;;;;;25.47;69.87;98147.69;4426098;32;20111;-76
2022/08/24 10:58:48;;;;;;;13.50;7.10;;;;;;;25.24;69.83;98137.66;4426120;32;20173;-80
2022/08/24 11:01:23;;;;;;;13.62;7.18;;;;;;;24.85;71.78;98141.63;4426337;32;20082;-78
2022/08/24 11:03:58;;;;;;;14.40;7.82;;;;;;;25.41;70.05;98146.50;4425988;32;20145;-77
2022/08/24 11:06:29;;;;;;;15.05;8.10;;;;;;;25.78;69.28;98146.22;4426223;32;20141;-76
2022/08/24 11:09:08;;;;;;;15.75;9.25;;;;;;;26.23;67.30;98159.09;4426271;32;20683;-77
2022/08/24 11:11:46;;;;;;;13.50;7.43;;;;;;;25.54;70.60;98149.56;4426251;32;20134;-77
2022/08/24 11:14:29;;;;;;;14.50;6.72;;;;;;;26.47;66.49;98160.16;4426203;32;20107;-77
2022/08/24 11:17:20;;;;;;;14.93;7.30;;;;;;;27.23;63.24;98157.22;4425934;32;20136;-76
2022/08/24 11:19:48;;;;;;;14.18;8.30;;;;;;;27.75;60.71;98153.28;4420513;32;20597;-76
2022/08/24 11:22:36;;;;;;;16.12;7.87;;;;;;;28.58;59.07;98155.34;4426065;32;20346;-76
2022/08/24 11:25:10;;;;;;;11.35;6.90;;;;;;;27.92;60.55;98170.78;4424470;32;20094;-77
2022/08/24 11:27:38;;;;;;;14.52;6.62;;;;;;;28.53;57.51;98162.03;4412361;32;20409;-78
2022/08/24 11:30:16;;;;;;;15.07;7.28;;;;;;;28.03;60.90;98161.63;4424763;32;20098;-77
2022/08/24 11:32:52;;;;;;;13.48;7.35;;;;;;;29.09;56.82;98167.09;4426050;32;20086;-77
2022/08/24 11:35:26;;;;;;;13.07;7.10;;;;;;;29.58;54.90;98169.31;4426066;32;20153;-78
2022/08/24 11:37:56;;;;;;;12.73;6.93;;;;;;;28.91;56.88;98159.44;4425268;32;20174;-78
2022/08/24 11:40:29;;;;;;;14.45;6.68;;;;;;;26.68;64.01;98164.97;4425890;32;20132;-78
2022/08/24 11:43:10;;;;;;;14.32;7.57;;;;;;;26.46;64.99;98167.25;4425423;32;20098;-78
2022/08/24 11:45:59;;;;;;;13.15;6.85;;;;;;;27.10;62.99;98170.13;4424376;32;20100;-78
2022/08/24 11:48:28;;;;;;;12.02;6.22;;;;;;;27.09;62.30;98174.59;4425431;32;20109;-78
2022/08/24 11:51:22;;;;;;;13.07;6.68;;;;;;;27.28;61.14;98165.47;4426029;32;20102;-78
2022/08/24 11:54:02;;;;;;;14.40;7.37;;;;;;;27.13;62.07;98161.88;4424768;32;20151;-78
2022/08/24 11:56:40;;;;;;;12.48;7.00;;;;;;;27.57;60.48;98161.47;4425964;32;20094;-78
2022/08/24 11:59:20;;;;;;;13.27;5.85;;;;;;;27.64;60.75;98160.59;4424304;32;20098;-78
2022/08/24 12:01:57;;;;;;;12.27;6.30;;;;;;;26.77;63.55;98156.06;4424875;32;20109;-78